Weather at Fiske Airfield

Public forecast

Using degrees Celsius for public forecast. Weather courtesy of forecast.io.

Closest aviation weather report (METAR) to Fiske Airfield

Closest report is Kristiansund Airport, Kvernberget, 33.8 nm (62.5 km) W.

2024/05/22 17:50 (retrieved 27 minutes ago)

ENKB 221750Z 01008KT CAVOK 20/07 Q1015 RMK WIND 745FT 01010KT

Closest aviation forecast (TAF) to Fiske Airfield

Closest forecast is Ørland Airport, 43.9 nm (81.2 km) NNE.

2024/05/22 18:36 (retrieved 0 seconds ago)

TAF ENOL 221700Z 2218/2318 34008KT CAVOK BECMG 2222/2301 13012KT BECMG 2311/2313 34010KT